Airports Norway Sogndal Airport

Sogndal Airport (ENSG / SOG)

Facts about Sogndal Airport

Name Sogndal Airport
City Sogndal
Country Norway
ICAO code ENSG
IATA code SOG
Elevation 497.7384 meters (1633 feet)

Weather

METAR

Metar data retrieved Saturday, 20 July 2024 at 00:55 UTC (24 minutes ago)

ENSG 200020Z AUTO 00000KT 9999 SCT040/// BKN055/// OVC068/// 15/11 Q1017 RMK WIND 3806FT 17010KT

Live traffic

Navigraph Charts (account required)